Terminal Aerodrome Forecast
Issued by NWS

Home | Current Version | Previous Version | Text Only | Print | Product List | Glossary On
Versions: 1 2 3 4 5 6 7 8 9 10 11 12 13 14 15 16 17
000
FTUS43 KJKL 232327
TAFSME
TAF
KSME 232327Z 2400/2424 00000KT P6SM VCSH FEW050 SCT250
     FM240800 00000KT 3SM BR FEW090 SCT250
     FM241300 00000KT P6SM FEW050 SCT250=

USA.gov is the U.S. government's official web portal to all federal, state and local government web resources and services.